Time;durP1;ratioP1;P1;durP2;ratioP2;P2;SDS_P1;SDS_P2;PMS_P1;PMS_P2;Temp;Humidity;BMP_temperature;BMP_pressure;BME280_temperature;BME280_humidity;BME280_pressure;Samples;Min_cycle;Max_cycle;Signal;HPM_P1;HPM_P2
2021/01/01 00:01:45;;;;;;;18.45;10.43;;;9.50;99.90;;;;;;5050639;28;20424;-62
2021/01/01 00:04:13;;;;;;;23.98;12.25;;;9.50;99.90;;;;;;5054671;28;20056;-62
2021/01/01 00:06:48;;;;;;;27.85;12.93;;;9.50;99.90;;;;;;5054285;28;20131;-62
2021/01/01 00:09:17;;;;;;;22.00;11.27;;;9.50;99.90;;;;;;5053608;28;20056;-62
2021/01/01 00:11:49;;;;;;;20.50;10.13;;;9.60;99.90;;;;;;5054734;28;20053;-62
2021/01/01 00:14:17;;;;;;;22.55;10.85;;;9.60;99.90;;;;;;5054697;28;20514;-62
2021/01/01 00:16:46;;;;;;;25.80;12.75;;;9.50;99.90;;;;;;5054081;28;20086;-62
2021/01/01 00:19:13;;;;;;;22.08;12.13;;;9.50;99.90;;;;;;5054621;28;20146;-62
2021/01/01 00:21:41;;;;;;;26.23;13.45;;;9.50;99.90;;;;;;5054455;28;20045;-62
2021/01/01 00:24:08;;;;;;;20.52;12.02;;;9.60;99.90;;;;;;5054529;28;20060;-62
2021/01/01 00:26:37;;;;;;;17.92;11.43;;;9.50;99.90;;;;;;5052751;28;20049;-63
2021/01/01 00:29:06;;;;;;;18.45;7.78;;;9.50;99.90;;;;;;5040186;28;20833;-62
2021/01/01 00:31:33;;;;;;;16.02;7.97;;;9.50;99.90;;;;;;5034350;28;20080;-62
2021/01/01 00:34:01;;;;;;;18.75;9.60;;;9.50;99.90;;;;;;5034610;28;20175;-62
2021/01/01 00:36:28;;;;;;;17.02;9.38;;;9.60;99.90;;;;;;5033920;28;20045;-63
2021/01/01 00:38:56;;;;;;;18.95;8.77;;;9.60;99.90;;;;;;5034463;28;20408;-62
2021/01/01 00:41:33;;;;;;;25.75;13.68;;;9.60;99.90;;;;;;5034267;28;20096;-62
2021/01/01 00:44:01;;;;;;;24.02;12.70;;;9.60;99.90;;;;;;5033258;28;20049;-62
2021/01/01 00:46:33;;;;;;;28.90;15.88;;;9.60;99.90;;;;;;5052955;28;20033;-62
2021/01/01 00:49:03;;;;;;;32.67;16.27;;;9.60;99.90;;;;;;5018823;28;20049;-62
2021/01/01 00:51:32;;;;;;;29.13;15.10;;;9.60;99.90;;;;;;5032762;28;20045;-63
2021/01/01 00:54:00;;;;;;;25.83;15.32;;;9.60;99.90;;;;;;5032543;28;20473;-62
2021/01/01 00:56:29;;;;;;;25.33;12.45;;;9.50;99.90;;;;;;5037700;28;20056;-62
2021/01/01 00:58:57;;;;;;;29.17;12.90;;;9.40;99.90;;;;;;5052836;28;20049;-63
2021/01/01 01:01:27;;;;;;;25.67;13.02;;;9.40;99.90;;;;;;5053614;28;20111;-62
2021/01/01 01:03:56;;;;;;;21.83;11.13;;;9.40;99.90;;;;;;5053738;28;20056;-63
2021/01/01 01:06:25;;;;;;;22.33;10.40;;;9.50;99.90;;;;;;5053282;28;20079;-62
2021/01/01 01:08:54;;;;;;;17.63;9.77;;;9.50;99.90;;;;;;5053506;28;20103;-62
2021/01/01 01:11:26;;;;;;;21.23;10.63;;;9.60;99.90;;;;;;5053511;28;20052;-62
2021/01/01 01:13:55;;;;;;;17.77;8.80;;;9.50;99.90;;;;;;5035522;28;20041;-62
2021/01/01 01:16:24;;;;;;;13.85;8.52;;;9.50;99.90;;;;;;5033080;28;20051;-63
2021/01/01 01:18:52;;;;;;;22.80;10.13;;;9.50;99.90;;;;;;5033535;28;20052;-63
2021/01/01 01:21:21;;;;;;;18.55;9.43;;;9.50;99.90;;;;;;5032250;28;20049;-63
2021/01/01 01:23:49;;;;;;;21.48;10.02;;;9.50;99.90;;;;;;5031986;28;20087;-62
2021/01/01 01:26:17;;;;;;;17.75;10.43;;;9.60;99.90;;;;;;5033021;28;20095;-62
2021/01/01 01:28:44;;;;;;;19.38;10.40;;;9.60;99.90;;;;;;5031745;28;20053;-62
2021/01/01 01:31:12;;;;;;;17.08;8.45;;;9.60;99.90;;;;;;5015897;28;20060;-62
2021/01/01 01:33:40;;;;;;;17.60;8.00;;;9.60;99.90;;;;;;5033313;28;20428;-62
2021/01/01 01:36:07;;;;;;;19.63;9.77;;;9.60;99.90;;;;;;5031672;28;20128;-62
2021/01/01 01:38:36;;;;;;;14.32;8.70;;;9.60;99.90;;;;;;5033477;28;20394;-62
2021/01/01 01:41:04;;;;;;;17.10;9.30;;;9.60;99.90;;;;;;5033255;28;20531;-62
2021/01/01 01:43:32;;;;;;;20.25;8.77;;;9.60;99.90;;;;;;5044511;28;20041;-63
2021/01/01 01:46:00;;;;;;;19.38;9.35;;;9.50;99.90;;;;;;5051970;28;20076;-62
2021/01/01 01:48:31;;;;;;;18.70;8.55;;;9.50;99.90;;;;;;5006328;28;20076;-63
2021/01/01 01:50:59;;;;;;;22.52;12.25;;;9.50;99.90;;;;;;5032610;28;20049;-62
2021/01/01 01:53:32;;;;;;;18.85;9.65;;;9.50;99.90;;;;;;5030401;28;20049;-62
2021/01/01 01:56:01;;;;;;;22.38;9.77;;;9.50;99.90;;;;;;5032363;28;20132;-62
2021/01/01 01:58:28;;;;;;;15.55;10.23;;;9.40;99.90;;;;;;5033062;28;20072;-62
2021/01/01 02:00:58;;;;;;;19.63;9.45;;;9.50;99.90;;;;;;5031852;28;20042;-62
2021/01/01 02:03:30;;;;;;;25.42;11.43;;;9.40;99.90;;;;;;5032909;28;20050;-63
2021/01/01 02:05:59;;;;;;;22.67;11.48;;;9.40;99.90;;;;;;5032838;28;20053;-62
2021/01/01 02:08:27;;;;;;;22.58;11.27;;;9.40;99.90;;;;;;5032017;28;20049;-62
2021/01/01 02:10:57;;;;;;;28.42;12.93;;;9.40;99.90;;;;;;5035613;28;20519;-62
2021/01/01 02:13:25;;;;;;;26.65;14.00;;;9.30;99.90;;;;;;5050800;28;20131;-63
2021/01/01 02:15:53;;;;;;;29.63;15.27;;;9.30;99.90;;;;;;5055676;28;20059;-62
2021/01/01 02:18:42;;;;;;;29.05;15.30;;;9.30;99.90;;;;;;5056900;28;20045;-62
2021/01/01 02:21:14;;;;;;;26.33;15.27;;;9.30;99.90;;;;;;5056797;28;20077;-62
2021/01/01 02:23:42;;;;;;;28.90;13.05;;;9.20;99.90;;;;;;5056610;28;20496;-63
2021/01/01 02:26:11;;;;;;;27.40;14.57;;;9.20;99.90;;;;;;5056316;28;20496;-62
2021/01/01 02:28:39;;;;;;;26.08;14.32;;;9.10;99.90;;;;;;5056593;28;20049;-63
2021/01/01 02:31:07;;;;;;;27.42;14.15;;;9.20;99.90;;;;;;5055085;28;20122;-62
2021/01/01 02:33:34;;;;;;;29.98;15.50;;;9.20;99.90;;;;;;5056321;28;20049;-62
2021/01/01 02:36:02;;;;;;;26.63;13.90;;;9.20;99.90;;;;;;5055956;28;20049;-62
2021/01/01 02:38:30;;;;;;;23.45;13.40;;;9.20;99.90;;;;;;5056542;28;20045;-62
2021/01/01 02:40:57;;;;;;;25.30;12.20;;;9.20;99.90;;;;;;5056489;28;20045;-62
2021/01/01 02:43:25;;;;;;;28.05;12.20;;;9.20;99.90;;;;;;5042873;28;20049;-62
2021/01/01 02:45:52;;;;;;;22.20;12.07;;;9.20;99.90;;;;;;5035749;28;20045;-62
2021/01/01 02:48:21;;;;;;;28.13;12.65;;;9.20;99.90;;;;;;5036443;28;20058;-62
2021/01/01 02:50:50;;;;;;;18.67;10.40;;;9.20;99.90;;;;;;5037600;28;20104;-62
2021/01/01 02:53:18;;;;;;;22.50;10.50;;;9.20;99.90;;;;;;5035098;28;20058;-62
2021/01/01 02:55:45;;;;;;;24.48;13.02;;;9.20;99.90;;;;;;5035955;28;20064;-63
2021/01/01 02:58:13;;;;;;;23.95;10.18;;;9.20;99.90;;;;;;5040482;28;20060;-62
2021/01/01 03:00:47;;;;;;;21.35;11.23;;;9.30;99.90;;;;;;5055291;28;20049;-62
2021/01/01 03:03:17;;;;;;;21.05;10.90;;;9.30;99.90;;;;;;5036154;28;20050;-62
2021/01/01 03:05:45;;;;;;;23.40;10.40;;;9.20;99.90;;;;;;5035930;28;20089;-63
2021/01/01 03:08:15;;;;;;;20.05;10.38;;;9.30;99.90;;;;;;5036255;28;20057;-61
2021/01/01 03:10:42;;;;;;;18.40;10.02;;;9.30;99.90;;;;;;5035972;28;20057;-62
2021/01/01 03:13:10;;;;;;;22.23;9.13;;;9.30;99.90;;;;;;5035964;28;20492;-62
2021/01/01 03:15:40;;;;;;;21.98;11.25;;;9.30;99.90;;;;;;5035748;28;20124;-63
2021/01/01 03:18:08;;;;;;;15.55;8.93;;;9.30;99.90;;;;;;5035765;28;20049;-62
2021/01/01 03:20:36;;;;;;;20.50;10.23;;;9.30;99.90;;;;;;5035344;28;20045;-63
2021/01/01 03:23:05;;;;;;;16.90;9.38;;;9.30;99.90;;;;;;5034394;28;20061;-62
2021/01/01 03:25:34;;;;;;;16.73;9.43;;;9.30;99.90;;;;;;5017692;28;20061;-62
2021/01/01 03:28:02;;;;;;;20.92;11.02;;;9.30;99.90;;;;;;5035616;28;20058;-63
2021/01/01 03:30:29;;;;;;;20.38;9.30;;;9.30;99.90;;;;;;5035579;28;20045;-62
2021/01/01 03:32:56;;;;;;;17.67;9.52;;;9.30;99.90;;;;;;5051347;28;20447;-62
2021/01/01 03:35:26;;;;;;;22.48;9.80;;;9.20;99.90;;;;;;5034966;28;20046;-62
2021/01/01 03:37:54;;;;;;;17.25;8.70;;;9.30;99.90;;;;;;5035450;28;20088;-62
2021/01/01 03:40:22;;;;;;;15.38;7.35;;;9.30;99.90;;;;;;5035310;28;20587;-62
2021/01/01 03:42:50;;;;;;;14.55;8.05;;;9.30;99.90;;;;;;5034531;28;20560;-62
2021/01/01 03:45:17;;;;;;;14.57;7.68;;;9.30;99.90;;;;;;5034860;28;20465;-62
2021/01/01 03:47:45;;;;;;;16.55;8.85;;;9.20;99.90;;;;;;5034084;28;20475;-62
2021/01/01 03:50:12;;;;;;;17.40;8.43;;;9.20;99.90;;;;;;5035180;28;20049;-63
2021/01/01 03:52:39;;;;;;;15.88;8.00;;;9.20;99.90;;;;;;5034929;28;20068;-62
2021/01/01 03:55:07;;;;;;;15.25;8.00;;;9.20;99.90;;;;;;5034720;28;20053;-62
2021/01/01 03:57:35;;;;;;;20.33;8.52;;;9.30;99.90;;;;;;5035075;28;20058;-63
2021/01/01 04:00:06;;;;;;;18.15;7.78;;;9.20;99.90;;;;;;5033944;28;20064;-62
2021/01/01 04:02:40;;;;;;;23.92;10.23;;;9.20;99.90;;;;;;5048385;28;20162;-61
2021/01/01 04:05:11;;;;;;;25.40;10.43;;;9.10;99.90;;;;;;5053872;28;20048;-62
2021/01/01 04:07:38;;;;;;;21.98;10.25;;;9.10;99.90;;;;;;5055160;28;20053;-62
2021/01/01 04:10:06;;;;;;;25.17;9.15;;;9.10;99.90;;;;;;5054966;28;20064;-62
2021/01/01 04:12:34;;;;;;;16.55;9.40;;;9.20;99.90;;;;;;5054886;28;20109;-63
2021/01/01 04:15:03;;;;;;;19.90;10.45;;;9.20;99.90;;;;;;5053032;28;20561;-62
2021/01/01 04:17:30;;;;;;;21.58;9.85;;;9.20;99.90;;;;;;5054646;28;20048;-63
2021/01/01 04:19:58;;;;;;;22.65;9.80;;;9.20;99.90;;;;;;5054644;28;20056;-62
2021/01/01 04:22:27;;;;;;;18.80;9.65;;;9.30;99.90;;;;;;5053283;28;20073;-62
2021/01/01 04:24:54;;;;;;;18.73;8.85;;;9.20;99.90;;;;;;5054304;28;20052;-62
2021/01/01 04:27:31;;;;;;;16.63;7.53;;;9.20;99.90;;;;;;5053385;28;20057;-63
2021/01/01 04:29:58;;;;;;;20.10;8.95;;;9.20;99.90;;;;;;5054428;28;20083;-62
2021/01/01 04:32:26;;;;;;;20.85;9.55;;;9.10;99.90;;;;;;5039798;28;20128;-63
2021/01/01 04:34:54;;;;;;;16.80;7.68;;;9.10;99.90;;;;;;5032171;28;20054;-62
2021/01/01 04:37:21;;;;;;;19.05;7.88;;;9.10;99.90;;;;;;5033396;28;20045;-62
2021/01/01 04:39:49;;;;;;;14.38;8.05;;;9.10;99.90;;;;;;5033170;28;20052;-62
2021/01/01 04:42:18;;;;;;;16.35;8.55;;;9.10;99.90;;;;;;5034308;28;20048;-62
2021/01/01 04:44:47;;;;;;;20.05;9.27;;;9.00;99.90;;;;;;5032285;28;20049;-63
2021/01/01 04:47:17;;;;;;;17.23;9.60;;;8.90;99.90;;;;;;5032974;28;20053;-62
2021/01/01 04:49:46;;;;;;;21.40;7.97;;;8.90;99.90;;;;;;5034453;28;20050;-62
2021/01/01 04:52:17;;;;;;;17.98;7.90;;;8.80;99.90;;;;;;5033821;28;20543;-63
2021/01/01 04:54:46;;;;;;;17.50;8.52;;;8.70;99.90;;;;;;5033487;28;20091;-63
2021/01/01 04:57:13;;;;;;;15.40;7.25;;;8.70;99.90;;;;;;5032911;28;20440;-62
2021/01/01 04:59:41;;;;;;;17.40;8.30;;;8.70;99.90;;;;;;5033938;28;20045;-63
2021/01/01 05:02:08;;;;;;;15.70;6.35;;;8.70;99.90;;;;;;5044736;28;20060;-62
2021/01/01 05:04:36;;;;;;;17.38;6.50;;;8.70;99.90;;;;;;5052681;28;20423;-62
2021/01/01 05:07:03;;;;;;;17.80;8.00;;;8.70;99.90;;;;;;5046092;28;20123;-63
2021/01/01 05:09:32;;;;;;;15.43;6.60;;;8.70;99.90;;;;;;5041710;28;20052;-63
2021/01/01 05:12:07;;;;;;;16.55;6.35;;;8.80;99.90;;;;;;5063821;28;20095;-61
2021/01/01 05:14:34;;;;;;;15.03;5.97;;;8.80;99.90;;;;;;5055451;28;20048;-61
2021/01/01 05:17:05;;;;;;;15.95;8.07;;;8.80;99.90;;;;;;5045840;28;20296;-62
2021/01/01 05:19:44;;;;;;;17.05;7.70;;;8.80;99.90;;;;;;5040641;28;20049;-62
2021/01/01 05:22:12;;;;;;;19.90;9.35;;;8.80;99.90;;;;;;5061595;28;20048;-62
2021/01/01 05:24:44;;;;;;;13.88;7.22;;;8.80;99.90;;;;;;5044383;28;20065;-61
2021/01/01 05:27:18;;;;;;;12.43;6.35;;;8.90;99.90;;;;;;5039356;28;20064;-62
2021/01/01 05:29:54;;;;;;;12.50;6.80;;;8.90;99.90;;;;;;5053375;28;20056;-62
2021/01/01 05:32:30;;;;;;;9.40;5.45;;;8.90;99.90;;;;;;5052198;28;20124;-62
2021/01/01 05:34:58;;;;;;;16.05;5.93;;;8.90;99.90;;;;;;5052541;28;20037;-62
2021/01/01 05:37:32;;;;;;;12.88;6.38;;;8.90;99.90;;;;;;5051886;28;20045;-62
2021/01/01 05:40:06;;;;;;;11.55;5.10;;;8.90;99.90;;;;;;5053276;28;20455;-62
2021/01/01 05:42:35;;;;;;;10.75;5.05;;;8.90;99.90;;;;;;5052239;28;20036;-62
2021/01/01 05:45:19;;;;;;;8.35;4.00;;;8.90;99.90;;;;;;5050347;28;20493;-63
2021/01/01 05:48:07;;;;;;;10.10;5.43;;;8.90;99.90;;;;;;5051292;28;20168;-62
2021/01/01 05:50:36;;;;;;;15.65;5.32;;;8.90;99.90;;;;;;5053077;28;20133;-62
2021/01/01 05:53:16;;;;;;;9.27;4.85;;;9.00;99.90;;;;;;5051700;28;20045;-63
2021/01/01 05:55:46;;;;;;;8.25;4.53;;;9.00;99.90;;;;;;5052736;28;20057;-61
2021/01/01 05:58:21;;;;;;;12.52;4.70;;;9.00;99.90;;;;;;5052944;28;20394;-62
2021/01/01 06:00:53;;;;;;;9.93;4.10;;;9.00;99.90;;;;;;5052993;28;20063;-62
2021/01/01 06:03:28;;;;;;;11.88;4.38;;;9.00;99.90;;;;;;5051595;28;20175;-62
2021/01/01 06:05:57;;;;;;;8.48;3.88;;;9.00;99.90;;;;;;5052499;28;20511;-62
2021/01/01 06:08:29;;;;;;;9.95;3.92;;;9.00;99.90;;;;;;5052881;28;20045;-62
2021/01/01 06:11:01;;;;;;;9.80;3.92;;;9.00;99.90;;;;;;5052824;28;20057;-62
2021/01/01 06:13:33;;;;;;;11.35;3.95;;;9.10;99.90;;;;;;5053005;28;20431;-62
2021/01/01 06:16:03;;;;;;;16.00;5.03;;;9.10;99.90;;;;;;5050571;28;20389;-62
2021/01/01 06:18:35;;;;;;;12.52;3.50;;;9.10;99.90;;;;;;5051142;28;20132;-63
2021/01/01 06:21:07;;;;;;;7.25;2.70;;;9.10;99.90;;;;;;5052793;28;20120;-62
2021/01/01 06:23:41;;;;;;;6.78;2.65;;;9.00;99.90;;;;;;5051400;28;20110;-62
2021/01/01 06:26:11;;;;;;;6.68;2.03;;;9.10;99.90;;;;;;5051667;28;20368;-62
2021/01/01 06:28:44;;;;;;;8.07;2.42;;;9.10;99.90;;;;;;5052139;28;20126;-63
2021/01/01 06:31:12;;;;;;;6.03;2.88;;;9.10;99.90;;;;;;5051970;28;20053;-62
2021/01/01 06:33:43;;;;;;;5.35;1.98;;;9.20;99.90;;;;;;5052969;28;20055;-63
2021/01/01 06:36:39;;;;;;;5.60;2.47;;;9.30;99.90;;;;;;5052230;28;20162;-62
2021/01/01 06:39:07;;;;;;;9.48;2.90;;;9.40;99.90;;;;;;5052695;28;20069;-63
2021/01/01 06:41:45;;;;;;;6.00;2.15;;;9.40;99.90;;;;;;5052545;28;20041;-63
2021/01/01 06:44:33;;;;;;;7.60;2.33;;;9.40;99.90;;;;;;5045657;28;20069;-62
2021/01/01 06:47:04;;;;;;;8.95;3.55;;;9.50;99.90;;;;;;5035814;28;20045;-62
2021/01/01 06:49:39;;;;;;;17.27;1.77;;;9.60;99.90;;;;;;5052619;28;20053;-63
2021/01/01 06:52:18;;;;;;;5.68;2.22;;;9.70;99.90;;;;;;5035049;28;20052;-62
2021/01/01 06:54:56;;;;;;;4.43;2.13;;;9.80;99.90;;;;;;5051071;28;20049;-62
2021/01/01 06:57:33;;;;;;;5.15;1.85;;;9.90;99.90;;;;;;5055017;28;20583;-62
2021/01/01 07:00:01;;;;;;;6.05;1.85;;;10.10;99.90;;;;;;5056087;28;20498;-63
2021/01/01 07:02:30;;;;;;;5.47;2.20;;;10.20;99.90;;;;;;5056122;28;20132;-62
2021/01/01 07:05:01;;;;;;;9.63;6.15;;;10.30;99.90;;;;;;5054426;28;20053;-62
2021/01/01 07:07:45;;;;;;;13.77;5.97;;;10.50;99.90;;;;;;5055825;28;20057;-62
2021/01/01 07:10:33;;;;;;;10.60;4.20;;;10.50;99.90;;;;;;5055864;28;20057;-62
2021/01/01 07:13:20;;;;;;;5.70;2.15;;;10.60;99.90;;;;;;5055956;28;20128;-62
2021/01/01 07:15:51;;;;;;;2.63;1.60;;;10.70;99.90;;;;;;5035327;28;20049;-62
2021/01/01 07:18:21;;;;;;;5.28;2.03;;;10.80;99.90;;;;;;5035801;28;20128;-62
2021/01/01 07:20:49;;;;;;;7.03;2.17;;;10.90;99.90;;;;;;5034616;28;20049;-62
2021/01/01 07:23:16;;;;;;;5.22;2.08;;;10.90;99.90;;;;;;5035720;28;20046;-62
2021/01/01 07:25:44;;;;;;;6.95;3.80;;;11.00;99.90;;;;;;5035246;28;20115;-62
2021/01/01 07:28:12;;;;;;;11.10;6.88;;;10.90;99.90;;;;;;5034727;28;20103;-62
2021/01/01 07:30:40;;;;;;;10.75;6.70;;;10.90;99.90;;;;;;5034333;28;20464;-62
2021/01/01 07:33:09;;;;;;;8.45;4.32;;;11.00;99.90;;;;;;5035864;28;20050;-62
2021/01/01 07:35:48;;;;;;;9.52;4.22;;;11.00;99.90;;;;;;5017834;28;20157;-62
2021/01/01 07:38:19;;;;;;;6.15;3.17;;;11.10;99.90;;;;;;5035410;28;20049;-63
2021/01/01 07:40:48;;;;;;;5.95;3.13;;;11.10;99.90;;;;;;5035479;28;20474;-62
2021/01/01 07:43:18;;;;;;;11.85;4.43;;;11.20;99.90;;;;;;5035407;28;20049;-63
2021/01/01 07:45:47;;;;;;;14.38;6.47;;;11.30;99.90;;;;;;5048896;28;20136;-62
2021/01/01 07:48:15;;;;;;;12.90;5.93;;;11.40;99.90;;;;;;5017826;28;20053;-63
2021/01/01 07:50:43;;;;;;;15.80;5.47;;;11.50;99.90;;;;;;5034022;28;20184;-62
2021/01/01 07:53:12;;;;;;;8.77;4.68;;;11.60;99.90;;;;;;5033674;28;20153;-62
2021/01/01 07:55:42;;;;;;;9.65;3.30;;;11.70;99.90;;;;;;5033580;28;20107;-62
2021/01/01 07:58:14;;;;;;;9.82;4.57;;;11.80;99.90;;;;;;5034904;28;20111;-63
2021/01/01 08:00:46;;;;;;;9.15;4.07;;;11.90;99.90;;;;;;5033875;28;20088;-62
2021/01/01 08:03:15;;;;;;;9.82;4.07;;;12.00;99.90;;;;;;5037863;28;20075;-63
2021/01/01 08:05:45;;;;;;;9.77;5.88;;;12.20;99.90;;;;;;5054624;28;20449;-62
2021/01/01 08:08:19;;;;;;;11.07;6.10;;;12.30;99.90;;;;;;5054666;28;20049;-63
2021/01/01 08:10:49;;;;;;;8.80;4.13;;;12.40;99.90;;;;;;5053827;28;20112;-62
2021/01/01 08:13:26;;;;;;;11.13;7.40;;;12.50;99.90;;;;;;5052836;28;20055;-62
2021/01/01 08:15:57;;;;;;;30.52;14.85;;;12.60;99.90;;;;;;5053872;28;20049;-63
2021/01/01 08:18:27;;;;;;;22.73;11.10;;;12.70;99.90;;;;;;5034677;28;20128;-62
2021/01/01 08:21:05;;;;;;;19.20;12.45;;;12.80;99.90;;;;;;5034521;28;20529;-63
2021/01/01 08:23:56;;;;;;;9.23;5.55;;;13.00;99.90;;;;;;5034491;28;20415;-61
2021/01/01 08:26:26;;;;;;;4.78;2.35;;;13.10;99.90;;;;;;5032952;28;20060;-63
2021/01/01 08:28:57;;;;;;;10.52;5.38;;;13.20;99.90;;;;;;5034412;28;20515;-62
2021/01/01 08:31:28;;;;;;;7.65;4.03;;;13.30;99.90;;;;;;5034516;28;20057;-62
2021/01/01 08:33:56;;;;;;;8.00;2.95;;;13.40;99.90;;;;;;5034388;28;20064;-62
2021/01/01 08:36:34;;;;;;;9.52;4.75;;;13.50;99.90;;;;;;5033852;28;20136;-63
2021/01/01 08:39:06;;;;;;;11.68;6.70;;;13.60;99.90;;;;;;5033226;28;20049;-62
2021/01/01 08:41:46;;;;;;;11.75;5.32;;;13.70;99.50;;;;;;5033161;28;20046;-61
2021/01/01 08:44:17;;;;;;;6.85;2.03;;;13.80;99.20;;;;;;5042227;28;20127;-61
2021/01/01 08:46:45;;;;;;;4.03;1.40;;;13.90;99.00;;;;;;5051069;28;20045;-62
2021/01/01 08:49:21;;;;;;;238.98;133.98;;;13.90;98.30;;;;;;5052976;28;20182;-62
2021/01/01 08:51:51;;;;;;;81.53;43.47;;;13.90;97.80;;;;;;5053880;28;20084;-61
2021/01/01 08:54:28;;;;;;;58.22;33.53;;;14.00;97.30;;;;;;5053690;28;20056;-62
2021/01/01 08:56:59;;;;;;;32.17;20.05;;;14.00;98.00;;;;;;5053433;28;20095;-61
2021/01/01 08:59:30;;;;;;;17.30;10.20;;;14.10;97.90;;;;;;5053656;28;20045;-60
2021/01/01 09:02:13;;;;;;;19.20;11.32;;;14.20;97.10;;;;;;5054105;28;20049;-62
2021/01/01 09:04:48;;;;;;;9.65;6.90;;;14.20;97.70;;;;;;5053317;28;20045;-62
2021/01/01 09:07:17;;;;;;;10.45;6.18;;;14.30;97.60;;;;;;5036366;28;20055;-63
2021/01/01 09:09:45;;;;;;;6.63;3.25;;;14.40;97.80;;;;;;5053570;28;20056;-62
2021/01/01 09:12:12;;;;;;;10.50;5.35;;;14.40;97.60;;;;;;5053928;28;20049;-62
2021/01/01 09:14:45;;;;;;;9.55;4.68;;;14.40;97.70;;;;;;5051328;28;20076;-62
2021/01/01 09:17:13;;;;;;;7.88;4.40;;;14.50;97.80;;;;;;5052235;28;20064;-62
2021/01/01 09:19:41;;;;;;;19.50;11.68;;;14.50;97.60;;;;;;5052822;28;20045;-63
2021/01/01 09:22:20;;;;;;;10.00;6.70;;;14.60;96.90;;;;;;5053381;28;20416;-63
2021/01/01 09:24:48;;;;;;;7.43;4.47;;;14.70;97.20;;;;;;5052996;28;20464;-62
2021/01/01 09:27:21;;;;;;;6.97;2.97;;;14.70;97.60;;;;;;5053495;28;20057;-63
2021/01/01 09:30:05;;;;;;;5.13;1.25;;;14.80;97.40;;;;;;5053411;28;20053;-63
2021/01/01 09:32:33;;;;;;;2.75;1.10;;;14.80;97.90;;;;;;5053373;28;20057;-61
2021/01/01 09:35:01;;;;;;;2.97;0.98;;;14.80;98.30;;;;;;5035032;28;20049;-63
2021/01/01 09:37:29;;;;;;;4.43;1.27;;;14.80;97.80;;;;;;5053203;28;20049;-63
2021/01/01 09:39:57;;;;;;;1.95;0.63;;;14.70;97.90;;;;;;5053183;28;20052;-62
2021/01/01 09:42:25;;;;;;;1.55;0.50;;;14.70;98.00;;;;;;5053185;28;20060;-63
2021/01/01 09:44:53;;;;;;;4.75;2.28;;;14.70;97.60;;;;;;5034089;28;20103;-63
2021/01/01 09:47:27;;;;;;;4.28;1.90;;;14.70;98.30;;;;;;5033029;28;20132;-63
2021/01/01 09:49:55;;;;;;;4.63;2.10;;;14.80;98.30;;;;;;5033240;28;20057;-63
2021/01/01 09:52:26;;;;;;;3.20;1.13;;;14.80;98.40;;;;;;5032964;28;20073;-63
2021/01/01 09:54:56;;;;;;;4.05;1.25;;;14.80;97.70;;;;;;5031475;28;20050;-63
2021/01/01 09:57:26;;;;;;;3.83;1.85;;;14.80;97.40;;;;;;5031737;28;20159;-63
2021/01/01 09:59:53;;;;;;;4.97;1.35;;;14.80;97.70;;;;;;5032996;28;20048;-63
2021/01/01 10:02:21;;;;;;;3.15;1.20;;;14.70;97.40;;;;;;5033028;28;20124;-62
2021/01/01 10:04:50;;;;;;;6.55;3.35;;;14.80;97.80;;;;;;5048307;28;20140;-62
2021/01/01 10:07:19;;;;;;;16.77;7.68;;;15.00;97.80;;;;;;5052619;28;20055;-62
2021/01/01 10:09:50;;;;;;;18.73;9.95;;;15.00;97.50;;;;;;5052984;28;20135;-62
2021/01/01 10:12:18;;;;;;;7.55;4.45;;;15.00;97.00;;;;;;5052754;28;20049;-63
2021/01/01 10:14:47;;;;;;;9.93;4.53;;;15.10;97.10;;;;;;5051374;28;20132;-62
2021/01/01 10:17:16;;;;;;;16.70;6.90;;;15.20;97.10;;;;;;5052222;28;20446;-63
2021/01/01 10:19:43;;;;;;;12.77;3.63;;;15.20;96.70;;;;;;5052748;28;20049;-63
2021/01/01 10:22:12;;;;;;;9.77;3.47;;;15.30;96.10;;;;;;5051861;28;20053;-62
2021/01/01 10:24:42;;;;;;;7.65;2.00;;;15.40;95.40;;;;;;5052194;28;20115;-63
2021/01/01 10:27:10;;;;;;;4.78;1.55;;;15.40;95.00;;;;;;5052734;28;20056;-63
2021/01/01 10:29:38;;;;;;;5.22;2.60;;;15.50;95.10;;;;;;5052544;28;20056;-63
2021/01/01 10:32:13;;;;;;;5.05;2.50;;;15.60;95.10;;;;;;5055027;28;20053;-61
2021/01/01 10:34:42;;;;;;;5.18;2.95;;;15.50;94.60;;;;;;5056145;28;20504;-60
2021/01/01 10:37:13;;;;;;;18.98;10.30;;;15.50;93.90;;;;;;5056411;28;20483;-63
2021/01/01 10:39:43;;;;;;;5.75;2.60;;;15.50;94.00;;;;;;5056089;28;20052;-63
2021/01/01 10:42:11;;;;;;;4.03;2.35;;;15.60;93.90;;;;;;5056762;28;20040;-63
2021/01/01 10:44:39;;;;;;;3.17;1.45;;;15.50;93.30;;;;;;5038488;28;20439;-63
2021/01/01 10:47:09;;;;;;;8.88;2.08;;;15.50;93.30;;;;;;5036259;28;20059;-63
2021/01/01 10:49:37;;;;;;;3.92;0.73;;;15.50;93.50;;;;;;5036261;28;20089;-63
2021/01/01 10:52:05;;;;;;;4.43;1.58;;;15.50;92.70;;;;;;5036115;28;20099;-63
2021/01/01 10:54:33;;;;;;;5.18;2.60;;;15.50;93.60;;;;;;5034562;28;20509;-62
2021/01/01 10:57:01;;;;;;;7.70;3.17;;;15.50;94.00;;;;;;5034822;28;20532;-62
2021/01/01 10:59:29;;;;;;;5.28;2.05;;;15.60;93.80;;;;;;5036117;28;20515;-62
2021/01/01 11:01:59;;;;;;;5.25;2.08;;;15.60;93.80;;;;;;5036096;28;20406;-63
2021/01/01 11:04:27;;;;;;;5.38;2.85;;;15.40;94.10;;;;;;5047735;28;20053;-62
2021/01/01 11:06:55;;;;;;;9.23;3.50;;;15.50;94.30;;;;;;5055832;28;20041;-63
2021/01/01 11:09:23;;;;;;;9.60;3.75;;;15.60;94.80;;;;;;5054785;28;20053;-63
2021/01/01 11:11:55;;;;;;;10.80;3.08;;;15.60;95.20;;;;;;5055831;28;20443;-63
2021/01/01 12:22:09;;;;;;;12.13;4.47;;;15.20;93.10;;;;;;5033557;28;20082;-62
2021/01/01 12:24:46;;;;;;;4.22;0.85;;;15.30;93.70;;;;;;5033492;28;20054;-61
2021/01/01 12:27:19;;;;;;;4.18;0.80;;;15.40;93.00;;;;;;5036879;28;20045;-62
2021/01/01 12:29:50;;;;;;;19.10;9.00;;;15.60;92.80;;;;;;5042949;28;20052;-61
2021/01/01 12:32:20;;;;;;;14.32;4.18;;;15.60;93.40;;;;;;5047220;28;20123;-63
2021/01/01 12:34:48;;;;;;;15.32;7.15;;;15.70;93.00;;;;;;5049497;28;20102;-62
2021/01/01 12:37:18;;;;;;;9.23;4.22;;;15.70;93.20;;;;;;5044616;28;20080;-62
2021/01/01 12:39:46;;;;;;;6.15;2.45;;;15.70;92.90;;;;;;5033050;28;20099;-62
2021/01/01 12:42:15;;;;;;;11.18;4.82;;;15.70;92.40;;;;;;5040612;28;20065;-62
2021/01/01 12:44:42;;;;;;;22.90;9.32;;;15.70;92.50;;;;;;5041023;28;20053;-62
2021/01/01 12:47:10;;;;;;;9.32;3.03;;;15.70;93.20;;;;;;5036270;28;20450;-62
2021/01/01 12:49:38;;;;;;;6.78;4.18;;;15.60;93.30;;;;;;5034149;28;20057;-62
2021/01/01 12:52:07;;;;;;;8.93;5.80;;;15.50;93.70;;;;;;5047463;28;20080;-63
2021/01/01 12:54:34;;;;;;;12.05;6.60;;;15.10;93.60;;;;;;5052727;28;20119;-63
2021/01/01 12:57:02;;;;;;;11.30;6.70;;;15.20;94.30;;;;;;5039483;28;20125;-62
2021/01/01 12:59:30;;;;;;;12.10;6.43;;;15.10;94.00;;;;;;5034200;28;20042;-62
2021/01/01 13:02:00;;;;;;;25.50;11.80;;;14.90;93.50;;;;;;5033250;28;20053;-62
2021/01/01 13:04:28;;;;;;;19.52;7.55;;;15.00;93.50;;;;;;5042168;28;20053;-63
2021/01/01 13:06:56;;;;;;;18.17;7.40;;;15.00;93.30;;;;;;5047617;28;20061;-63
2021/01/01 13:09:23;;;;;;;11.68;5.70;;;15.00;92.80;;;;;;5043298;28;20054;-63
2021/01/01 13:11:51;;;;;;;16.15;6.22;;;15.00;92.60;;;;;;5032985;28;20572;-63
2021/01/01 13:14:19;;;;;;;14.70;7.75;;;14.90;92.60;;;;;;5033739;28;20065;-62
2021/01/01 13:16:47;;;;;;;7.28;2.88;;;14.80;92.50;;;;;;5045812;28;20128;-62
2021/01/01 13:19:14;;;;;;;12.27;2.53;;;14.90;92.60;;;;;;5048816;28;20034;-60
2021/01/01 13:21:44;;;;;;;27.33;12.68;;;14.90;92.80;;;;;;5046206;28;20451;-61
2021/01/01 13:24:12;;;;;;;10.93;4.75;;;14.80;93.60;;;;;;5038165;28;20046;-62
2021/01/01 13:26:39;;;;;;;4.45;0.93;;;14.70;94.20;;;;;;5039288;28;20049;-63
2021/01/01 13:29:07;;;;;;;9.10;3.60;;;14.70;94.90;;;;;;5052454;28;20052;-62
2021/01/01 13:31:40;;;;;;;11.77;6.43;;;14.50;95.70;;;;;;5038788;28;20053;-62
2021/01/01 13:34:09;;;;;;;5.18;2.67;;;14.40;96.20;;;;;;5041134;28;20057;-62
2021/01/01 13:36:38;;;;;;;5.10;1.30;;;14.30;96.70;;;;;;5036743;28;20091;-62
2021/01/01 13:39:09;;;;;;;19.52;9.27;;;14.10;97.20;;;;;;5035284;28;20501;-62
2021/01/01 13:41:40;;;;;;;13.13;6.38;;;14.00;98.20;;;;;;5041429;28;20049;-62
2021/01/01 13:55:55;;;;;;;16.65;2.85;;;13.70;99.00;;;;;;5045579;27;20408;-65
2021/01/01 13:58:26;;;;;;;5.25;1.42;;;14.10;99.90;;;;;;5026410;28;20068;-65
2021/01/01 14:00:53;;;;;;;9.48;2.60;;;14.10;99.90;;;;;;5019963;28;20490;-64
2021/01/01 14:03:24;;;;;;;8.30;3.13;;;14.00;99.90;;;;;;5036206;28;20045;-65
2021/01/01 14:06:00;;;;;;;12.10;4.13;;;13.90;99.90;;;;;;5036001;28;20115;-64
2021/01/01 14:08:29;;;;;;;6.57;2.40;;;14.00;99.90;;;;;;5042346;28;20489;-65
2021/01/01 14:10:56;;;;;;;6.70;2.17;;;14.10;99.90;;;;;;5025984;28;20049;-65
2021/01/01 14:13:30;;;;;;;12.38;3.90;;;14.10;99.90;;;;;;5019031;28;20053;-65
2021/01/01 14:15:58;;;;;;;7.20;2.58;;;14.00;99.90;;;;;;5029542;28;20049;-64
2021/01/01 14:18:28;;;;;;;8.27;2.25;;;14.00;99.90;;;;;;5034177;28;20450;-65